Time;durP1;ratioP1;P1;durP2;ratioP2;P2;SDS_P1;SDS_P2;PMS_P1;PMS_P2;Temp;Humidity;BMP_temperature;BMP_pressure;BME280_temperature;BME280_humidity;BME280_pressure;Samples;Min_cycle;Max_cycle;Signal;HPM_P1;HPM_P2
2022/09/06 00:02:11;;;;;;;5.43;2.30;;;;;;;16.88;93.12;98780.22;5042572;28;20056;-68
2022/09/06 00:04:36;;;;;;;4.65;2.50;;;;;;;16.92;94.02;98792.31;5050307;28;20026;-68
2022/09/06 00:07:01;;;;;;;6.63;3.35;;;;;;;16.82;94.63;98790.22;5044596;28;20021;-68
2022/09/06 00:09:26;;;;;;;5.03;2.60;;;;;;;16.78;95.48;98797.25;5049153;28;20060;-68
2022/09/06 00:11:52;;;;;;;4.70;2.25;;;;;;;16.70;96.00;98797.59;5047573;28;20021;-68
2022/09/06 00:14:17;;;;;;;3.92;2.80;;;;;;;16.69;96.80;98789.63;5049333;28;20029;-68
2022/09/06 00:16:42;;;;;;;7.18;2.67;;;;;;;16.65;96.91;98789.31;5049324;28;20025;-68
2022/09/06 00:19:08;;;;;;;3.97;3.03;;;;;;;16.67;95.81;98781.72;5049597;28;20045;-68
2022/09/06 00:21:34;;;;;;;3.70;3.08;;;;;;;16.75;95.05;98773.13;5043157;28;20021;-68
2022/09/06 00:23:59;;;;;;;6.63;2.88;;;;;;;16.63;94.30;98759.50;5048120;28;20036;-68
2022/09/06 00:26:25;;;;;;;6.10;2.92;;;;;;;16.67;95.59;98781.72;5049879;28;20025;-69
2022/09/06 00:28:50;;;;;;;9.90;3.70;;;;;;;16.70;95.64;98785.84;5049225;28;20025;-68
2022/09/06 00:31:22;;;;;;;4.43;2.78;;;;;;;16.59;96.45;98776.63;5047566;28;20093;-68
2022/09/06 00:33:48;;;;;;;6.55;3.47;;;;;;;16.48;98.21;98772.03;5043840;28;20021;-69
2022/09/06 00:36:13;;;;;;;7.93;3.30;;;;;;;16.44;99.26;98777.97;5030478;28;20367;-69
2022/09/06 00:38:40;;;;;;;5.20;2.80;;;;;;;16.42;100.00;98773.81;5030371;28;20040;-68
2022/09/06 00:41:07;;;;;;;6.68;2.92;;;;;;;16.41;100.00;98778.47;5028852;28;20041;-68
2022/09/06 00:43:33;;;;;;;3.53;2.40;;;;;;;16.32;96.73;98771.75;5031311;28;20029;-68
2022/09/06 00:45:58;;;;;;;6.25;2.60;;;;;;;16.35;98.86;98775.88;5031799;28;20026;-68
2022/09/06 00:48:24;;;;;;;12.85;2.60;;;;;;;16.17;100.00;98755.84;5032541;28;20021;-69
2022/09/06 00:50:55;;;;;;;3.55;2.20;;;;;;;16.22;97.25;98779.72;5038119;28;20467;-69
2022/09/06 00:53:20;;;;;;;2.97;2.20;;;;;;;16.13;93.66;98775.69;5034441;28;20041;-69
2022/09/06 00:55:46;;;;;;;8.63;2.63;;;;;;;16.04;98.96;98766.22;5032848;28;20033;-68
2022/09/06 00:58:12;;;;;;;3.28;2.17;;;;;;;15.96;100.00;98759.22;5030806;28;20057;-68
2022/09/06 01:00:37;;;;;;;6.80;2.60;;;;;;;15.83;100.00;98765.75;5029696;28;20017;-68
2022/09/06 01:03:03;;;;;;;3.40;2.20;;;;;;;15.61;100.00;98740.09;5026175;28;20037;-69
2022/09/06 01:05:42;;;;;;;3.45;2.20;;;;;;;15.67;100.00;98771.91;5025151;28;20116;-70
2022/09/06 01:08:20;;;;;;;5.35;2.25;;;;;;;15.62;100.00;98766.34;5028601;28;20193;-69
2022/09/06 01:11:00;;;;;;;3.80;2.30;;;;;;;15.55;100.00;98766.44;5028484;28;20574;-68
2022/09/06 01:13:48;;;;;;;5.38;2.65;;;;;;;15.50;100.00;98778.03;5032377;28;20033;-69
2022/09/06 01:16:31;;;;;;;8.38;2.80;;;;;;;15.55;100.00;98777.34;5032699;28;20040;-69
2022/09/06 01:19:17;;;;;;;6.22;2.70;;;;;;;15.57;100.00;98778.78;5026563;28;20029;-68
2022/09/06 01:21:48;;;;;;;4.28;2.58;;;;;;;15.51;100.00;98763.38;5033029;28;20029;-68
2022/09/06 01:24:58;;;;;;;8.10;3.63;;;;;;;15.58;100.00;98774.13;5030726;28;20032;-68
2022/09/06 01:27:32;;;;;;;4.72;2.58;;;;;;;15.63;100.00;98784.34;5024794;28;20021;-69
2022/09/06 01:30:08;;;;;;;6.13;2.80;;;;;;;15.70;100.00;98777.75;5030163;28;20436;-70
2022/09/06 01:32:59;;;;;;;3.22;2.45;;;;;;;15.76;100.00;98779.50;5029299;28;20104;-69
2022/09/06 01:35:45;;;;;;;3.70;2.40;;;;;;;15.87;100.00;98791.47;5021862;28;20134;-69
2022/09/06 01:38:10;;;;;;;4.65;2.50;;;;;;;15.89;100.00;98797.53;5014547;28;20213;-68
2022/09/06 01:40:36;;;;;;;6.40;2.17;;;;;;;15.97;100.00;98802.63;5029681;28;20017;-69
2022/09/06 01:43:09;;;;;;;4.03;2.30;;;;;;;15.95;100.00;98790.28;5025247;28;20029;-68
2022/09/06 01:45:55;;;;;;;5.30;2.35;;;;;;;15.92;100.00;98780.69;5027606;28;20567;-68
2022/09/06 01:49:10;;;;;;;6.03;2.60;;;;;;;16.00;100.00;98799.41;5028355;28;20037;-69
2022/09/06 01:52:15;;;;;;;6.57;2.42;;;;;;;16.00;100.00;98815.78;5002166;28;20061;-69
2022/09/06 01:54:46;;;;;;;3.50;2.42;;;;;;;15.78;100.00;98807.38;5029570;28;20392;-69
2022/09/06 01:57:36;;;;;;;2.80;2.38;;;;;;;15.56;100.00;98819.91;5024244;28;20041;-69
2022/09/06 02:00:16;;;;;;;4.47;2.67;;;;;;;15.68;100.00;98815.28;5027135;28;20108;-68
2022/09/06 02:03:19;;;;;;;6.97;2.60;;;;;;;15.75;100.00;98816.03;5023675;28;20029;-68
2022/09/06 02:05:49;;;;;;;2.88;2.35;;;;;;;15.81;100.00;98817.00;5025975;28;20092;-68
2022/09/06 02:08:24;;;;;;;3.95;2.28;;;;;;;15.86;100.00;98819.03;5028552;28;20100;-68
2022/09/06 02:10:58;;;;;;;8.63;2.55;;;;;;;15.84;100.00;98816.50;5028624;28;20032;-69
2022/09/06 02:13:26;;;;;;;6.32;2.83;;;;;;;15.83;100.00;98816.78;5029989;28;20034;-68
2022/09/06 02:15:57;;;;;;;4.63;2.47;;;;;;;15.94;100.00;98826.84;5027232;28;20053;-68
2022/09/06 02:18:35;;;;;;;4.55;2.70;;;;;;;16.05;100.00;98827.91;5028587;28;20390;-68
2022/09/06 02:21:02;;;;;;;5.30;2.40;;;;;;;16.33;100.00;98873.59;5025655;28;20029;-68
2022/09/06 02:23:33;;;;;;;4.57;2.42;;;;;;;15.99;100.00;98911.56;5031586;28;20029;-68
2022/09/06 02:26:08;;;;;;;3.38;2.38;;;;;;;15.91;100.00;98901.00;5026595;28;20029;-68
2022/09/06 02:28:34;;;;;;;3.80;2.22;;;;;;;16.13;100.00;98890.31;5029106;28;20112;-68
2022/09/06 02:31:09;;;;;;;5.03;2.50;;;;;;;16.48;100.00;98903.09;5027583;28;20087;-69
2022/09/06 02:33:34;;;;;;;5.05;2.20;;;;;;;16.82;100.00;98907.72;5026773;28;20029;-69
2022/09/06 02:36:06;;;;;;;7.72;2.90;;;;;;;17.10;97.59;98897.88;5025773;28;20032;-68
2022/09/06 02:38:34;;;;;;;2.75;2.10;;;;;;;17.28;93.19;98914.09;5023080;28;20036;-69
2022/09/06 02:41:02;;;;;;;3.35;2.30;;;;;;;17.13;93.68;98913.78;5026570;28;20478;-69
2022/09/06 02:43:27;;;;;;;6.72;2.75;;;;;;;16.94;94.13;98893.19;5029948;28;20491;-68
2022/09/06 02:45:52;;;;;;;4.88;2.58;;;;;;;16.99;96.49;98915.16;5029907;28;20106;-69
2022/09/06 02:48:18;;;;;;;7.05;2.72;;;;;;;17.04;97.30;98907.06;5031029;28;20032;-68
2022/09/06 02:50:43;;;;;;;7.85;2.63;;;;;;;17.04;97.76;98918.00;5025123;28;20521;-68
2022/09/06 02:53:11;;;;;;;4.75;2.78;;;;;;;17.03;99.99;98902.69;5022620;28;20104;-68
2022/09/06 02:55:36;;;;;;;7.90;2.83;;;;;;;17.15;100.00;98899.91;5031356;28;20122;-68
2022/09/06 02:58:03;;;;;;;4.05;2.80;;;;;;;17.33;100.00;98893.41;5035647;28;20406;-68
2022/09/06 03:00:28;;;;;;;4.88;2.70;;;;;;;17.33;100.00;98874.25;5025684;28;20383;-68
2022/09/06 03:02:54;;;;;;;8.70;2.78;;;;;;;17.33;100.00;98874.25;5029942;28;20033;-70
2022/09/06 03:05:21;;;;;;;3.70;2.72;;;;;;;17.39;100.00;98865.88;5024496;28;20040;-68
2022/09/06 03:07:47;;;;;;;5.32;2.55;;;;;;;17.52;100.00;98856.53;5023680;28;20449;-68
2022/09/06 03:10:12;;;;;;;6.03;2.95;;;;;;;17.41;100.00;98791.81;5026620;28;20030;-68
2022/09/06 03:12:37;;;;;;;7.85;2.80;;;;;;;17.49;100.00;98789.47;5029506;28;20022;-68
2022/09/06 03:15:03;;;;;;;7.03;3.20;;;;;;;17.50;100.00;98790.31;5027414;28;20108;-68
2022/09/06 03:17:28;;;;;;;7.57;3.35;;;;;;;17.46;100.00;98779.03;5027832;28;20108;-68
2022/09/06 03:19:54;;;;;;;4.60;3.45;;;;;;;17.40;100.00;98763.63;5026709;28;20030;-68
2022/09/06 03:22:19;;;;;;;7.25;3.15;;;;;;;17.38;100.00;98771.25;5022793;28;20034;-68
2022/09/06 03:24:44;;;;;;;5.35;3.40;;;;;;;17.28;100.00;98784.75;5025816;28;20034;-68
2022/09/06 03:27:09;;;;;;;7.28;3.10;;;;;;;17.30;100.00;98802.56;5029066;28;20120;-69
2022/09/06 03:29:35;;;;;;;7.10;3.30;;;;;;;17.20;100.00;98796.91;5027978;28;20100;-68
2022/09/06 03:32:00;;;;;;;5.82;3.22;;;;;;;17.18;100.00;98804.53;5026781;28;20108;-68
2022/09/06 03:34:26;;;;;;;10.32;3.78;;;;;;;17.24;100.00;98802.75;5025665;28;20430;-68
2022/09/06 03:36:51;;;;;;;7.55;2.85;;;;;;;17.28;100.00;98793.78;5032581;28;20029;-68
2022/09/06 03:39:16;;;;;;;9.27;3.10;;;;;;;17.33;100.00;98790.31;5033633;28;20053;-68
2022/09/06 03:41:41;;;;;;;5.32;3.05;;;;;;;17.35;100.00;98820.97;5035289;28;20079;-68
2022/09/06 03:44:07;;;;;;;6.10;3.67;;;;;;;17.22;100.00;98844.00;5027894;28;20128;-68
2022/09/06 03:46:32;;;;;;;5.35;3.75;;;;;;;17.08;100.00;98848.94;5029223;28;20123;-68
2022/09/06 03:48:58;;;;;;;5.50;3.55;;;;;;;17.22;100.00;98887.75;5030407;28;20056;-68
2022/09/06 03:51:23;;;;;;;5.88;4.00;;;;;;;17.19;100.00;98881.94;5034566;28;20033;-68
2022/09/06 03:53:48;;;;;;;5.63;3.50;;;;;;;17.24;100.00;98861.00;5036431;28;20034;-69
2022/09/06 03:56:14;;;;;;;6.30;3.83;;;;;;;17.40;100.00;98855.81;5032899;28;20103;-68
2022/09/06 03:58:39;;;;;;;5.68;3.83;;;;;;;17.44;100.00;98843.28;5030693;28;20018;-67
2022/09/06 04:01:07;;;;;;;5.75;3.55;;;;;;;17.39;100.00;98826.78;5036442;28;20083;-69
2022/09/06 04:03:33;;;;;;;8.40;3.63;;;;;;;17.30;100.00;98816.25;5028625;28;20018;-68
2022/09/06 04:05:58;;;;;;;9.40;3.65;;;;;;;17.29;100.00;98806.38;5035905;28;20045;-68
2022/09/06 04:08:24;;;;;;;9.38;3.38;;;;;;;17.31;100.00;98797.94;5033217;28;20324;-68
2022/09/06 04:10:53;;;;;;;4.38;3.35;;;;;;;17.34;100.00;98797.41;5036778;28;20049;-68
2022/09/06 04:13:18;;;;;;;6.50;4.17;;;;;;;17.24;100.00;98789.06;5036536;28;20035;-68
2022/09/06 04:15:46;;;;;;;6.65;3.60;;;;;;;17.19;100.00;98814.41;5030138;28;20359;-68
2022/09/06 04:18:12;;;;;;;8.02;3.95;;;;;;;17.18;100.00;98842.81;5028262;28;20025;-68
2022/09/06 04:20:37;;;;;;;10.95;4.32;;;;;;;17.20;100.00;98857.06;5031601;28;20504;-68
2022/09/06 04:23:02;;;;;;;7.60;4.22;;;;;;;17.14;100.00;98847.13;5033950;28;20030;-68
2022/09/06 04:25:28;;;;;;;7.07;3.72;;;;;;;17.01;100.00;98803.69;5034058;28;20388;-69
2022/09/06 04:27:53;;;;;;;13.75;5.90;;;;;;;16.50;100.00;98797.19;5036562;28;20021;-69
2022/09/06 04:30:18;;;;;;;9.25;5.40;;;;;;;16.25;100.00;98839.28;5031950;28;20360;-69
2022/09/06 04:32:43;;;;;;;17.98;5.88;;;;;;;16.12;100.00;98843.09;5033011;28;20041;-69
2022/09/06 04:35:09;;;;;;;12.25;5.82;;;;;;;15.94;100.00;98835.84;5033327;28;20026;-69
2022/09/06 04:37:34;;;;;;;9.52;5.75;;;;;;;15.96;100.00;98808.34;5036033;28;20056;-69
2022/09/06 04:39:59;;;;;;;8.75;5.20;;;;;;;15.93;100.00;98804.19;5036608;28;20483;-69
2022/09/06 04:42:25;;;;;;;18.10;5.90;;;;;;;15.86;100.00;98802.66;5034772;28;20037;-68
2022/09/06 04:44:50;;;;;;;13.70;6.65;;;;;;;15.83;100.00;98827.69;5029503;28;20033;-69
2022/09/06 04:47:17;;;;;;;15.13;8.10;;;;;;;15.75;100.00;98832.41;5030679;28;20103;-69
2022/09/06 04:49:42;;;;;;;13.65;7.18;;;;;;;15.78;100.00;98834.66;5031858;28;20116;-69
2022/09/06 04:52:08;;;;;;;14.10;6.55;;;;;;;15.70;100.00;98831.47;5030076;28;20114;-69
2022/09/06 04:54:34;;;;;;;17.75;7.45;;;;;;;15.69;100.00;98837.97;5028052;28;20040;-69
2022/09/06 04:56:59;;;;;;;19.52;7.25;;;;;;;15.68;100.00;98839.00;5032620;28;20025;-68
2022/09/06 04:59:24;;;;;;;13.88;7.05;;;;;;;15.59;100.00;98829.50;5023176;28;20025;-69
2022/09/06 05:01:50;;;;;;;15.57;7.95;;;;;;;15.71;100.00;98839.41;5028545;28;20032;-69
2022/09/06 05:04:15;;;;;;;10.45;6.25;;;;;;;15.71;100.00;98846.75;5029091;28;20530;-69
2022/09/06 05:06:41;;;;;;;19.25;7.60;;;;;;;15.70;100.00;98850.56;5031803;28;20024;-69
2022/09/06 05:09:07;;;;;;;11.27;7.07;;;;;;;15.68;100.00;98861.66;5028822;28;20411;-69
2022/09/06 05:11:32;;;;;;;10.90;7.20;;;;;;;15.73;100.00;98845.44;5028101;28;20026;-70
2022/09/06 05:13:58;;;;;;;11.45;6.82;;;;;;;15.73;100.00;98855.53;5024447;28;20036;-72
2022/09/06 05:16:23;;;;;;;11.85;6.90;;;;;;;15.72;100.00;98871.06;5025527;28;20038;-72
2022/09/06 05:18:48;;;;;;;13.90;6.57;;;;;;;15.74;100.00;98866.19;5033123;28;20037;-72
2022/09/06 05:21:14;;;;;;;10.43;6.60;;;;;;;15.76;100.00;98857.78;5035683;28;20029;-73
2022/09/06 05:23:40;;;;;;;10.18;6.50;;;;;;;15.74;100.00;98832.63;5032410;28;20818;-73
2022/09/06 05:26:05;;;;;;;13.00;6.70;;;;;;;15.92;100.00;98868.00;5029641;28;20032;-74
2022/09/06 05:28:30;;;;;;;20.40;7.30;;;;;;;16.03;100.00;98860.06;5019807;28;20022;-73
2022/09/06 05:31:10;;;;;;;10.00;6.35;;;;;;;16.16;100.00;98862.53;5027356;28;20029;-72
2022/09/06 05:33:36;;;;;;;12.05;6.25;;;;;;;16.29;100.00;98850.53;5029465;28;20029;-72
2022/09/06 05:36:04;;;;;;;14.93;6.05;;;;;;;16.38;100.00;98852.69;5030802;28;20056;-74
2022/09/06 05:38:29;;;;;;;10.93;6.90;;;;;;;16.65;100.00;98857.59;5044645;28;20029;-73
2022/09/06 05:40:55;;;;;;;11.38;6.57;;;;;;;17.62;100.00;98840.28;5043092;28;20052;-75
2022/09/06 05:43:20;;;;;;;12.73;5.55;;;;;;;19.11;100.00;98858.84;5048233;28;20025;-71
2022/09/06 05:45:46;;;;;;;9.68;5.65;;;;;;;19.93;100.00;98860.44;5048315;28;20030;-71
2022/09/06 05:48:11;;;;;;;7.28;4.75;;;;;;;20.09;100.00;98844.88;5043739;28;20021;-72
2022/09/06 05:50:36;;;;;;;10.27;4.95;;;;;;;20.44;100.00;98857.22;5041620;28;20109;-71
2022/09/06 05:53:02;;;;;;;11.60;4.72;;;;;;;20.57;100.00;98854.00;5046783;28;20060;-72
2022/09/06 05:55:27;;;;;;;9.00;4.05;;;;;;;20.56;100.00;98853.16;5047148;28;20033;-76
2022/09/06 05:57:52;;;;;;;7.85;4.60;;;;;;;19.89;100.00;98857.41;5043390;28;20029;-73
2022/09/06 06:00:18;;;;;;;8.02;4.30;;;;;;;18.89;100.00;98862.44;5047330;28;20040;-74
2022/09/06 06:02:46;;;;;;;12.75;5.00;;;;;;;18.30;100.00;98868.47;5044771;28;20021;-72
2022/09/06 06:05:12;;;;;;;10.38;4.97;;;;;;;17.82;100.00;98866.38;5049710;28;20064;-72
2022/09/06 06:07:37;;;;;;;9.52;4.55;;;;;;;17.61;100.00;98871.47;5043220;28;20033;-73
2022/09/06 06:10:03;;;;;;;9.10;5.60;;;;;;;17.48;100.00;98858.13;5043164;28;20032;-74
2022/09/06 06:12:28;;;;;;;9.13;6.00;;;;;;;17.40;100.00;98853.88;5023179;28;20119;-73
2022/09/06 06:14:53;;;;;;;13.85;5.65;;;;;;;17.42;100.00;98870.03;5028144;28;20029;-72
2022/09/06 06:17:19;;;;;;;7.75;5.55;;;;;;;17.41;100.00;98871.13;5028579;28;20072;-72
2022/09/06 06:19:44;;;;;;;9.07;5.22;;;;;;;17.40;100.00;98872.22;5026387;28;20026;-73
2022/09/06 06:22:09;;;;;;;9.52;5.68;;;;;;;17.35;100.00;98883.88;5030781;28;20579;-73
2022/09/06 06:24:34;;;;;;;10.27;5.60;;;;;;;17.46;100.00;98874.78;5029228;28;20030;-75
2022/09/06 06:27:00;;;;;;;8.27;5.88;;;;;;;17.45;100.00;98888.72;5027276;28;20037;-74
2022/09/06 06:29:25;;;;;;;7.50;5.15;;;;;;;17.53;100.00;98880.94;5019574;28;20554;-74
2022/09/06 06:31:50;;;;;;;7.85;5.57;;;;;;;17.58;100.00;98877.47;5017428;28;20029;-74
2022/09/06 06:34:20;;;;;;;9.48;5.35;;;;;;;17.86;100.00;98886.69;5023380;28;20602;-73
2022/09/06 06:36:45;;;;;;;8.05;5.13;;;;;;;18.00;100.00;98859.78;5029895;28;20112;-73
2022/09/06 06:39:11;;;;;;;9.25;5.57;;;;;;;18.32;100.00;98881.94;5030051;28;20070;-74
2022/09/06 06:41:36;;;;;;;10.15;5.07;;;;;;;18.50;100.00;98884.38;5024601;28;20037;-71
2022/09/06 06:44:03;;;;;;;9.65;4.97;;;;;;;18.93;100.00;98885.50;5035678;28;20071;-77
2022/09/06 06:46:31;;;;;;;9.05;6.00;;;;;;;18.81;100.00;98869.19;5031609;28;20188;-76
2022/09/06 06:48:57;;;;;;;12.35;4.80;;;;;;;19.20;100.00;98887.44;5032443;28;20040;-76
2022/09/06 06:51:27;;;;;;;9.50;5.25;;;;;;;19.03;100.00;98868.34;5035432;28;20030;-76
2022/09/06 06:53:55;;;;;;;9.65;5.40;;;;;;;19.25;100.00;98873.78;5034458;28;20029;-76
2022/09/06 06:56:33;;;;;;;7.85;4.95;;;;;;;19.39;100.00;98883.28;5030503;28;20048;-70
2022/09/06 06:59:01;;;;;;;8.98;4.60;;;;;;;19.54;100.00;98862.53;5020606;28;20029;-71
2022/09/06 07:01:28;;;;;;;7.80;5.13;;;;;;;19.57;100.00;98873.84;5020724;28;20029;-71
2022/09/06 07:03:54;;;;;;;11.52;5.13;;;;;;;19.92;100.00;98881.56;5028525;28;20029;-71
2022/09/06 07:06:20;;;;;;;6.35;4.07;;;;;;;20.08;100.00;98884.44;5024275;28;20032;-74
2022/09/06 07:08:46;;;;;;;9.95;4.75;;;;;;;20.70;100.00;98892.00;5027487;28;20040;-70
2022/09/06 07:11:13;;;;;;;7.57;4.78;;;;;;;21.15;100.00;98860.25;5028575;28;20072;-72
2022/09/06 07:13:39;;;;;;;6.78;4.18;;;;;;;21.52;100.00;98875.78;5027148;28;20033;-70
2022/09/06 07:16:09;;;;;;;7.00;4.25;;;;;;;21.55;100.00;98875.22;5020979;28;20034;-73
2022/09/06 07:18:36;;;;;;;9.40;4.60;;;;;;;23.40;100.00;98862.69;5025064;28;20913;-71
2022/09/06 07:21:02;;;;;;;6.57;4.10;;;;;;;24.02;91.68;98860.28;5019670;28;20052;-70
2022/09/06 07:23:27;;;;;;;6.40;3.95;;;;;;;23.80;86.55;98862.69;5028422;28;20025;-73
2022/09/06 07:25:52;;;;;;;6.57;4.00;;;;;;;22.95;100.00;98875.59;5024746;28;20064;-70
2022/09/06 07:28:18;;;;;;;7.22;4.20;;;;;;;22.68;100.00;98858.59;5024707;28;20507;-70
2022/09/06 07:30:43;;;;;;;7.80;4.50;;;;;;;22.74;100.00;98877.59;5018000;28;20029;-70
2022/09/06 07:33:08;;;;;;;8.52;3.80;;;;;;;23.08;100.00;98873.34;5017166;28;20072;-70
2022/09/06 07:35:33;;;;;;;9.98;4.93;;;;;;;22.99;100.00;98870.34;5020038;28;20047;-70
2022/09/06 07:38:00;;;;;;;12.73;4.32;;;;;;;22.86;100.00;98871.75;5026106;28;20076;-74
2022/09/06 07:40:29;;;;;;;9.43;4.13;;;;;;;22.25;100.00;98871.94;5025912;28;20472;-73
2022/09/06 07:42:58;;;;;;;5.07;3.55;;;;;;;22.39;100.00;98875.78;5025570;28;20036;-70
2022/09/06 07:45:24;;;;;;;;;;;;;;;22.63;100.00;98875.16;5039028;28;20064;-69
2022/09/06 07:47:58;;;;;;;5.05;3.53;;;;;;;23.61;86.74;98868.88;5029800;28;19912;-76
2022/09/06 07:50:24;;;;;;;6.53;3.53;;;;;;;24.58;78.08;98872.75;5023223;28;20090;-70
2022/09/06 07:52:50;;;;;;;6.90;3.58;;;;;;;25.14;74.36;98874.81;5020726;28;20029;-73
2022/09/06 07:55:15;;;;;;;4.97;3.88;;;;;;;26.33;67.05;98873.81;5025346;28;20036;-73
2022/09/06 07:57:41;;;;;;;7.82;3.25;;;;;;;28.59;59.47;98876.00;5024672;28;20067;-72
2022/09/06 08:00:07;;;;;;;4.68;3.08;;;;;;;29.99;55.11;98874.28;5029915;28;20061;-68
2022/09/06 08:02:32;;;;;;;5.72;2.55;;;;;;;32.03;46.99;98875.06;5024212;28;20030;-71
2022/09/06 08:04:58;;;;;;;4.78;2.70;;;;;;;32.25;47.13;98857.06;5021828;28;20029;-68
2022/09/06 08:07:23;;;;;;;3.13;2.40;;;;;;;32.89;44.89;98850.03;5029095;28;20080;-69
2022/09/06 08:09:49;;;;;;;4.60;2.75;;;;;;;32.80;44.30;98859.72;5025194;28;20499;-67
2022/09/06 08:12:14;;;;;;;4.07;2.63;;;;;;;32.84;43.49;98850.25;5017809;28;20475;-68
2022/09/06 08:14:39;;;;;;;9.98;2.72;;;;;;;32.99;43.49;98859.09;5027253;28;20021;-69
2022/09/06 08:17:05;;;;;;;9.20;2.65;;;;;;;32.65;44.27;98858.44;5019965;28;20052;-70
2022/09/06 08:19:31;;;;;;;13.18;2.85;;;;;;;33.53;42.34;98858.81;5020940;28;20032;-69
2022/09/06 08:21:56;;;;;;;4.78;2.35;;;;;;;33.51;43.42;98853.59;5019229;28;20116;-69
2022/09/06 08:24:22;;;;;;;9.93;2.78;;;;;;;34.14;40.82;98855.00;5016573;28;20056;-70
2022/09/06 08:26:47;;;;;;;9.02;2.90;;;;;;;33.18;41.96;98854.56;5020983;28;20033;-69
2022/09/06 08:29:13;;;;;;;8.60;2.58;;;;;;;33.90;41.13;98844.69;5027489;28;20039;-69
2022/09/06 08:31:40;;;;;;;5.45;2.83;;;;;;;33.96;40.42;98846.06;5027283;28;20098;-70
2022/09/06 08:34:06;;;;;;;7.23;2.63;;;;;;;33.85;41.69;98853.34;5032621;28;20033;-68
2022/09/06 08:36:32;;;;;;;4.05;2.45;;;;;;;34.34;40.72;98842.72;5034410;28;20048;-68
2022/09/06 08:39:00;;;;;;;4.22;2.50;;;;;;;33.64;41.61;98843.13;5065469;22;20087;-72
2022/09/06 08:41:59;;;;;;;7.60;2.50;;;;;;;35.17;39.00;98840.00;5055472;28;20037;-71
2022/09/06 08:44:24;;;;;;;4.07;2.28;;;;;;;34.86;39.28;98840.84;5038272;28;20091;-71
2022/09/06 08:47:03;;;;;;;4.93;2.23;;;;;;;34.17;40.09;98843.88;5056534;28;20021;-71
2022/09/06 08:49:31;;;;;;;3.25;1.95;;;;;;;35.00;40.18;98841.16;5058222;28;20287;-71
2022/09/06 08:52:08;;;;;;;3.80;2.20;;;;;;;34.20;40.13;98823.50;5052825;28;20037;-71
2022/09/06 08:54:41;;;;;;;5.70;2.63;;;;;;;34.99;39.81;98836.72;5053870;28;20499;-72
2022/09/06 08:57:43;;;;;;;13.93;2.55;;;;;;;35.03;38.20;98834.84;5060461;28;20017;-72
2022/09/06 09:00:11;;;;;;;2.40;1.88;;;;;;;36.26;36.54;98833.41;5054289;28;20081;-72
2022/09/06 09:02:43;;;;;;;8.15;2.17;;;;;;;35.82;36.55;98832.94;5052062;28;20021;-72
2022/09/06 09:05:19;;;;;;;8.10;2.08;;;;;;;36.97;33.42;98828.22;5055425;28;20408;-72
2022/09/06 09:07:58;;;;;;;3.65;1.70;;;;;;;35.10;35.24;98818.13;5051390;28;20755;-72
2022/09/06 09:10:29;;;;;;;4.70;1.75;;;;;;;36.27;33.69;98822.97;5053484;28;20070;-72
2022/09/06 09:12:56;;;;;;;5.80;2.20;;;;;;;35.77;34.81;98832.06;5051457;28;20033;-72
2022/09/06 09:15:21;;;;;;;5.40;1.80;;;;;;;34.77;35.63;98829.78;5053020;28;20025;-72
2022/09/06 09:17:49;;;;;;;4.80;2.10;;;;;;;32.90;38.96;98832.03;5035628;28;20130;-71
2022/09/06 09:20:15;;;;;;;5.90;2.30;;;;;;;30.87;42.70;98819.84;5050733;28;20021;-71
2022/09/06 09:22:42;;;;;;;8.48;2.20;;;;;;;30.28;44.42;98815.78;5043260;28;20059;-71
2022/09/06 09:25:15;;;;;;;3.72;1.80;;;;;;;31.37;42.81;98817.03;5047797;28;20095;-71
2022/09/06 09:27:41;;;;;;;3.58;2.20;;;;;;;32.75;40.12;98799.13;5052446;28;20024;-73
2022/09/06 09:30:07;;;;;;;5.70;2.00;;;;;;;34.01;38.15;98798.91;5053169;28;20021;-72
2022/09/06 09:32:33;;;;;;;6.30;1.98;;;;;;;35.55;35.66;98805.47;5053148;28;20017;-72
2022/09/06 09:35:20;;;;;;;4.63;1.98;;;;;;;37.24;32.99;98828.22;5037408;28;20118;-72
2022/09/06 09:37:46;;;;;;;5.15;1.83;;;;;;;36.05;34.33;98811.25;5045759;28;20105;-71
2022/09/06 09:40:32;;;;;;;3.25;1.48;;;;;;;36.33;34.61;98811.00;5032270;28;20032;-72
2022/09/06 09:43:12;;;;;;;11.38;2.00;;;;;;;36.25;34.63;98809.25;5029912;28;20021;-72
2022/09/06 09:45:38;;;;;;;6.93;1.73;;;;;;;35.74;34.77;98812.31;5049852;28;20029;-72
2022/09/06 09:48:40;;;;;;;5.20;1.88;;;;;;;35.67;34.85;98817.78;5054482;28;20044;-72
2022/09/06 09:51:20;;;;;;;3.88;1.88;;;;;;;36.04;34.65;98808.84;4984893;28;20041;-71
2022/09/06 09:53:51;;;;;;;3.60;2.20;;;;;;;35.31;35.67;98814.16;5052634;28;20068;-71
2022/09/06 09:56:22;;;;;;;8.27;1.88;;;;;;;34.37;36.94;98790.63;5060021;28;20101;-72
2022/09/06 09:58:47;;;;;;;3.88;2.13;;;;;;;35.68;34.51;98808.94;5055337;28;20052;-72
2022/09/06 10:01:27;;;;;;;87.25;10.05;;;;;;;36.71;33.64;98808.44;5036218;28;20075;-72
2022/09/06 10:04:00;;;;;;;12.20;2.28;;;;;;;37.59;32.54;98791.19;5052320;28;20329;-73
2022/09/06 10:06:26;;;;;;;5.43;1.70;;;;;;;37.35;32.53;98802.97;5051932;28;20029;-73
2022/09/06 10:08:53;;;;;;;4.13;2.03;;;;;;;36.57;33.49;98811.84;5046859;28;20025;-73
2022/09/06 10:11:46;;;;;;;3.90;2.22;;;;;;;35.89;34.28;98800.09;5053151;28;20025;-73
2022/09/06 10:14:25;;;;;;;4.00;2.10;;;;;;;36.20;34.65;98812.38;5040971;28;20027;-75
2022/09/06 10:16:51;;;;;;;3.47;1.90;;;;;;;36.20;33.65;98806.75;5028389;28;20435;-73
2022/09/06 10:19:39;;;;;;;3.72;2.00;;;;;;;35.39;35.22;98807.50;5050536;28;20028;-73
2022/09/06 10:22:21;;;;;;;7.25;2.05;;;;;;;35.41;34.64;98799.53;5049612;28;20107;-73
2022/09/06 10:24:52;;;;;;;3.58;2.00;;;;;;;34.24;36.47;98804.75;5034507;28;20020;-72
2022/09/06 10:27:25;;;;;;;4.82;1.92;;;;;;;35.30;35.35;98799.28;5020274;28;20376;-74
2022/09/06 10:30:03;;;;;;;9.48;2.10;;;;;;;36.42;33.49;98796.69;5045987;28;20055;-72
2022/09/06 10:32:47;;;;;;;2.83;1.87;;;;;;;36.82;33.69;98800.97;5052186;28;20482;-73
2022/09/06 10:35:29;;;;;;;3.75;1.80;;;;;;;36.66;32.95;98801.13;5040123;28;22081;-73
2022/09/06 10:38:31;;;;;;;8.45;2.60;;;;;;;35.28;35.03;98783.97;5048885;28;20086;-72
2022/09/06 10:41:21;;;;;;;6.00;2.17;;;;;;;34.28;36.61;98799.22;5029291;28;20028;-73
2022/09/06 10:44:04;;;;;;;6.32;2.38;;;;;;;33.78;37.32;98787.44;5045078;28;20028;-73
2022/09/06 10:46:33;;;;;;;3.53;2.22;;;;;;;33.06;38.35;98778.09;5051394;28;20031;-73
2022/09/06 10:48:58;;;;;;;7.95;2.22;;;;;;;32.85;38.23;98765.00;5047845;28;20031;-73
2022/09/06 10:51:44;;;;;;;6.00;2.10;;;;;;;33.34;38.92;98780.94;5052731;28;20049;-73
2022/09/06 10:54:12;;;;;;;5.32;2.00;;;;;;;33.39;37.58;98783.50;5048691;28;20279;-72
2022/09/06 10:56:59;;;;;;;4.70;2.30;;;;;;;32.53;39.50;98787.22;5059165;28;20099;-72
2022/09/06 10:59:29;;;;;;;6.32;2.15;;;;;;;31.81;40.28;98778.31;5045529;28;20329;-72
2022/09/06 11:01:55;;;;;;;4.70;2.00;;;;;;;31.97;40.45;98775.69;5050697;28;20123;-72
2022/09/06 11:04:35;;;;;;;4.65;1.60;;;;;;;32.72;39.64;98766.19;5049199;28;20473;-73
2022/09/06 11:07:09;;;;;;;137.80;12.27;;;;;;;32.85;40.22;98758.59;5033463;28;20063;-72
2022/09/06 11:09:43;;;;;;;8.10;2.72;;;;;;;32.47;39.54;98763.41;5059105;28;20056;-72
2022/09/06 11:12:27;;;;;;;5.78;1.98;;;;;;;32.30;40.18;98758.00;5051634;28;20028;-72
2022/09/06 11:14:52;;;;;;;12.00;2.20;;;;;;;32.67;39.55;98763.63;5050189;28;20422;-72
2022/09/06 11:17:39;;;;;;;9.07;2.42;;;;;;;32.42;39.28;98754.41;5052101;28;20027;-72
2022/09/06 11:20:17;;;;;;;6.78;2.17;;;;;;;32.36;39.34;98745.41;5047154;28;20024;-73
2022/09/06 11:22:49;;;;;;;8.65;2.20;;;;;;;33.76;37.56;98756.09;5050972;28;20021;-72
2022/09/06 11:25:33;;;;;;;4.18;2.33;;;;;;;33.46;38.33;98757.63;5049380;28;20037;-72
2022/09/06 11:28:02;;;;;;;6.75;2.08;;;;;;;34.38;36.51;98731.28;5051126;28;20079;-72
2022/09/06 11:30:29;;;;;;;6.97;1.92;;;;;;;35.21;35.10;98755.69;5048795;28;20048;-72
2022/09/06 11:33:34;;;;;;;3.85;2.00;;;;;;;35.43;33.96;98762.59;5048123;28;20025;-73
2022/09/06 11:36:19;;;;;;;5.80;1.92;;;;;;;36.37;33.50;98755.53;5044593;28;20025;-72
2022/09/06 11:38:59;;;;;;;7.55;2.28;;;;;;;37.09;32.21;98756.66;5050251;28;20035;-74
2022/09/06 11:41:31;;;;;;;6.45;1.80;;;;;;;37.49;30.98;98738.22;5047984;28;20025;-73